Nearby METAR Reports

 

KSJC - San Jose, California, USA
Distance from station: NE 14km
Updated: 2018-06-19 08:53
Partly cloudy
Partly cloudy
 Wind from calm
Wind: Calm
Temperature: 17°C
Dew Point: 12°C
Humidity: 73%
Barometer: 1017.6 hPa
Clouds: Partly cloudy
Visibility: 16 km
Cloud details: Few Clouds 30 m
Few Clouds 427 m
Partly cloudy 914 m
2018/06/19 15:53 KSJC 191553Z 00000KT 10SM FEW001 FEW014 SCT030 17/12 A3005 RMK AO2 SLP174 T01720122
KNUQ - Moffett Nas/Mtn, California, USA
Distance from station: N 14km
Updated: 2018-06-19 08:56
Mostly cloudy
Mostly cloudy
 Wind from calm
Wind: Calm
Temperature: 16°C
Dew Point: 12°C
Humidity: 77%
Barometer: 1017.9 hPa
Clouds: Mostly cloudy
Visibility: 16 km
Cloud details: Mostly cloudy 396 m
2018/06/19 15:56 KNUQ 191556Z 00000KT 10SM BKN013 16/12 A3006 RMK AO2 SLP181 T01610122
 
KPAO - Palo Alto, California, USA
Distance from station: NNW 23km
Updated: 2018-06-19 08:47
Overcast
Overcast
 Wind from varies
Wind: varies 7 km/h
Temperature: 15°C
Dew Point: 12°C
Humidity: 82%
Barometer: 1017.9 hPa
Clouds: Overcast
Visibility: 16 km
Cloud details: Overcast 366 m
2018/06/19 15:47 KPAO 191547Z VRB04KT 10SM OVC012 15/12 A3006
KRHV - San Jose/Reid, California, USA
Distance from station: ENE 19km
Updated: 2018-06-19 08:47
Overcast
Overcast
 Wind from varies
Wind: varies 9 km/h
Temperature: 18°C
Dew Point: 12°C
Humidity: 68%
Barometer: 1016.9 hPa
Clouds: Overcast
Visibility: 13 km
Cloud details: Overcast 457 m
2018/06/19 15:47 KRHV 191547Z VRB05KT 8SM OVC015 18/12 A3003
 
KOAK - Oakland, California, USA
Distance from station: NNW 50km
Updated: 2018-06-19 08:53
Mist, Overcast
Mist, Overcast
 Wind from WSW
Wind: WSW 13 km/h
Temperature: 13°C
Dew Point: 11°C
Humidity: 88%
Barometer: 1018.3 hPa
Summary: Mist
Clouds: Overcast
Visibility: 10 km
Cloud details: Overcast 213 m
2018/06/19 15:53 KOAK 191553Z 24007KT 6SM BR OVC007 13/11 A3007 RMK AO2 SLP181 T01280111
KSQL - San Carlos Airpo, California, USA
Distance from station: NW 34km
Updated: 2018-06-19 08:47
Overcast
Overcast
 Wind from N
Wind: N 7 km/h
Temperature: 14°C
Dew Point: 12°C
Humidity: 88%
Barometer: 1017.9 hPa
Clouds: Overcast
Visibility: 16 km
Cloud details: Overcast 396 m
2018/06/19 15:47 KSQL 191547Z 36004KT 10SM OVC013 14/12 A3006
 
KSFO - San Francisco, California, USA
Distance from station: NW 49km
Updated: 2018-06-19 08:56
Overcast
Overcast
 Wind from W
Wind: W 11 km/h
Temperature: 14°C
Dew Point: 11°C
Humidity: 82%
Barometer: 1017.9 hPa
Clouds: Overcast
Visibility: 16 km
Cloud details: Overcast 213 m
2018/06/19 15:56 KSFO 191556Z 26006KT 10SM OVC007 14/11 A3006 RMK AO2 SLP178 T01390106
KE16 - San Martin, California, USA
Distance from station: ESE 43km
Updated: 2018-06-19 08:55
Clear
Clear
 Wind from NW
Wind: NW 7 km/h
Temperature: 17°C
Dew Point: 12°C
Humidity: 73%
Barometer: 1017.9 hPa
Clouds: Clear
Visibility: 16 km
2018/06/19 15:55 KE16 191555Z AUTO 32004KT 10SM CLR 17/12 A3006 RMK AO2
 
KWVI - Watsonville, California, USA
Distance from station: SSE 44km
Updated: 2018-06-19 08:53
Mist, Overcast
Mist, Overcast
 Wind from calm
Wind: Calm
Temperature: 13°C
Dew Point: 12°C
Humidity: 94%
Barometer: 1017.9 hPa
Summary: Mist
Clouds: Overcast
Visibility: 5 km
Cloud details: Overcast 122 m
2018/06/19 15:53 KWVI 191553Z AUTO 00000KT 3SM BR OVC004 13/12 A3006 RMK AO2 SLP180 T01280117 $
KHAF - Half Moon Bay, California, USA
Distance from station: WNW 50km
Updated: 2018-06-19 08:55
Mist, Overcast
Mist, Overcast
 Wind from NW
Wind: NW 7 km/h
Temperature: 12°C
Dew Point: 11°C
Humidity: 94%
Barometer: 1018.6 hPa
Summary: Mist
Clouds: Overcast
Visibility: 5 km
Cloud details: Overcast 152 m
2018/06/19 15:55 KHAF 191555Z AUTO 32004KT 3SM BR OVC005 12/11 A3008 RMK AO2
 
KHWD - Hayward, California, USA
Distance from station: N 44km
Updated: 2018-06-19 08:54
Overcast
Overcast
 Wind from NW
Wind: NW 13 km/h
Temperature: 14°C
Dew Point: 11°C
Humidity: 82%
Barometer: 1017.9 hPa
Clouds: Overcast
Visibility: 16 km
Cloud details: Overcast 274 m
2018/06/19 15:54 KHWD 191554Z 32007KT 10SM OVC009 14/11 A3006 RMK AO2 SLP189 T01440111
KLVK - Livermore, California, USA
Distance from station: NNE 51km
Updated: 2018-06-19 08:53
Few Clouds
Few Clouds
 Wind from varies
Wind: varies 6 km/h
Temperature: 16°C
Dew Point: 14°C
Humidity: 88%
Barometer: 1016.9 hPa
Clouds: Few Clouds
Visibility: 16 km
Cloud details: Few Clouds 305 m
2018/06/19 15:53 KLVK 191553Z VRB03KT 10SM FEW010 16/14 A3003 RMK AO2 SLP168 T01610144